PWSweather.com
Personal Weather Stations
Station Observations
SHAHALMS1
Eftra, Falkenberg, HA

EftraFalkenberg, HA

Lat: 56.85, Lon: 12.65

Elevation: 140

Station Type:

http://hem.passagen.se/risarp101

High Low Average
Temperature 39.0°F3.9°C 35.6°F2.0°C 37.5°F3.1°C
Dew Point 35.0°F1.7°C 30.9°F-0.6°C 33.4°F0.8°C
Winds 17.9 mph 28.8 kmh 0.8 mph 1.3 kmh 10.0 mph SSW16.1 kmh SSW
Wind Gusts 41.2 mph66.3 kmh 5.4 mph8.7 kmh 22.0 mph35.4 kmh
Humidity 90% 81% 85%
Pressure 29.33 in993.2 mb 29.06 in984.1 mb -
Precipitation 0.10 in2.5 mm - -
Hour Temp Dew Point Humidity Winds Wind Gusts Pressure Precip Precip Rate Daily Precip Total
12:00 AM 36.3°F2.4°C 32.8°F0.4°C 87% 9.0 mph W14.5 kmh W 16.1 mph25.9 kmh 29.09 in985.1 mb 0.00 in0.0 mm 0.00 in0.0 mm 0.00 in0.0 mm
12:15 AM 37.0°F2.8°C 33.8°F1.0°C 88% 8.5 mph S13.7 kmh S 20.4 mph32.8 kmh 29.09 in985.1 mb 0.00 in0.0 mm 0.00 in0.0 mm 0.00 in0.0 mm
12:30 AM 37.4°F3.0°C 34.2°F1.2°C 88% 12.2 mph WSW19.6 kmh WSW 26.8 mph43.1 kmh 29.09 in985.1 mb 0.00 in0.0 mm 0.00 in0.0 mm 0.00 in0.0 mm
12:45 AM 37.4°F3.0°C 33.9°F1.1°C 87% 10.4 mph WSW16.7 kmh WSW 24.3 mph39.1 kmh 29.09 in985.1 mb 0.00 in0.0 mm 0.00 in0.0 mm 0.00 in0.0 mm
01:00 AM 37.4°F3.0°C 33.6°F0.9°C 86% 10.4 mph WSW16.7 kmh WSW 22.5 mph36.2 kmh 29.09 in985.1 mb 0.00 in0.0 mm 0.00 in0.0 mm 0.00 in0.0 mm
01:15 AM 37.4°F3.0°C 33.6°F0.9°C 86% 10.2 mph SW16.4 kmh SW 20.0 mph32.2 kmh 29.06 in984.1 mb 0.00 in0.0 mm 0.00 in0.0 mm 0.00 in0.0 mm
01:30 AM 37.4°F3.0°C 33.9°F1.1°C 87% 10.4 mph WSW16.7 kmh WSW 21.8 mph35.1 kmh 29.06 in984.1 mb 0.00 in0.0 mm 0.00 in0.0 mm 0.00 in0.0 mm
01:45 AM 37.4°F3.0°C 34.2°F1.2°C 88% 10.4 mph WSW16.7 kmh WSW 21.1 mph34.0 kmh 29.09 in985.1 mb 0.00 in0.0 mm 0.00 in0.0 mm 0.00 in0.0 mm
02:00 AM 37.6°F3.1°C 34.6°F1.4°C 89% 13.1 mph WSW21.1 kmh WSW 26.5 mph42.6 kmh 29.09 in985.1 mb 0.00 in0.0 mm 0.00 in0.0 mm 0.00 in0.0 mm
02:15 AM 37.6°F3.1°C 34.6°F1.4°C 89% 10.9 mph WSW17.5 kmh WSW 24.7 mph39.8 kmh 29.09 in985.1 mb 0.00 in0.0 mm 0.00 in0.0 mm 0.00 in0.0 mm
02:30 AM 37.6°F3.1°C 34.6°F1.4°C 89% 10.6 mph SW17.1 kmh SW 20.8 mph33.5 kmh 29.09 in985.1 mb 0.00 in0.0 mm 0.00 in0.0 mm 0.00 in0.0 mm
02:45 AM 37.6°F3.1°C 34.3°F1.3°C 88% 12.7 mph SSW20.4 kmh SSW 23.3 mph37.5 kmh 29.09 in985.1 mb 0.00 in0.0 mm 0.00 in0.0 mm 0.00 in0.0 mm
03:00 AM 37.4°F3.0°C 33.9°F1.1°C 87% 12.2 mph SW19.6 kmh SW 23.6 mph38.0 kmh 29.09 in985.1 mb 0.00 in0.0 mm 0.00 in0.0 mm 0.00 in0.0 mm
03:15 AM 37.2°F2.9°C 33.1°F0.6°C 85% 13.1 mph SW21.1 kmh SW 24.7 mph39.8 kmh 29.09 in985.1 mb 0.00 in0.0 mm 0.00 in0.0 mm 0.00 in0.0 mm
03:30 AM 37.2°F2.9°C 33.1°F0.6°C 85% 12.5 mph WSW20.1 kmh WSW 23.3 mph37.5 kmh 29.09 in985.1 mb 0.00 in0.0 mm 0.00 in0.0 mm 0.00 in0.0 mm
03:45 AM 37.4°F3.0°C 33.0°F0.6°C 84% 13.5 mph SW21.7 kmh SW 28.3 mph45.5 kmh 29.09 in985.1 mb 0.00 in0.0 mm 0.00 in0.0 mm 0.00 in0.0 mm
04:00 AM 37.2°F2.9°C 32.2°F0.1°C 82% 14.5 mph WSW23.3 kmh WSW 30.8 mph49.6 kmh 29.09 in985.1 mb 0.00 in0.0 mm 0.00 in0.0 mm 0.00 in0.0 mm
04:15 AM 37.0°F2.8°C 32.4°F0.2°C 83% 12.2 mph WSW19.6 kmh WSW 27.9 mph44.9 kmh 29.09 in985.1 mb 0.00 in0.0 mm 0.00 in0.0 mm 0.00 in0.0 mm
04:30 AM 37.2°F2.9°C 32.5°F0.3°C 83% 12.6 mph SW20.3 kmh SW 28.3 mph45.5 kmh 29.09 in985.1 mb 0.00 in0.0 mm 0.00 in0.0 mm 0.00 in0.0 mm
04:45 AM 37.2°F2.9°C 32.8°F0.4°C 84% 13.4 mph SSW21.6 kmh SSW 29.7 mph47.8 kmh 29.06 in984.1 mb 0.00 in0.0 mm 0.00 in0.0 mm 0.00 in0.0 mm
05:00 AM 37.4°F3.0°C 33.3°F0.7°C 85% 11.3 mph SW18.2 kmh SW 20.8 mph33.5 kmh 29.06 in984.1 mb 0.00 in0.0 mm 0.00 in0.0 mm 0.00 in0.0 mm
05:15 AM 37.4°F3.0°C 33.3°F0.7°C 85% 12.3 mph SSW19.8 kmh SSW 27.6 mph44.4 kmh 29.09 in985.1 mb 0.00 in0.0 mm 0.00 in0.0 mm 0.00 in0.0 mm
05:30 AM 37.2°F2.9°C 32.8°F0.4°C 84% 14.1 mph SW22.7 kmh SW 23.6 mph38.0 kmh 29.06 in984.1 mb 0.00 in0.0 mm 0.00 in0.0 mm 0.00 in0.0 mm
05:45 AM 37.4°F3.0°C 33.3°F0.7°C 85% 13.1 mph SW21.1 kmh SW 28.3 mph45.5 kmh 29.09 in985.1 mb 0.00 in0.0 mm 0.00 in0.0 mm 0.00 in0.0 mm
06:00 AM 37.4°F3.0°C 33.0°F0.6°C 84% 14.1 mph SW22.7 kmh SW 28.6 mph46.0 kmh 29.06 in984.1 mb 0.00 in0.0 mm 0.00 in0.0 mm 0.00 in0.0 mm
06:15 AM 37.2°F2.9°C 33.1°F0.6°C 85% 13.6 mph SW21.9 kmh SW 28.3 mph45.5 kmh 29.06 in984.1 mb 0.00 in0.0 mm 0.00 in0.0 mm 0.00 in0.0 mm
06:30 AM 37.2°F2.9°C 33.4°F0.8°C 86% 13.7 mph SSW22.0 kmh SSW 27.2 mph43.8 kmh 29.06 in984.1 mb 0.00 in0.0 mm 0.00 in0.0 mm 0.00 in0.0 mm
06:45 AM 37.2°F2.9°C 33.7°F0.9°C 87% 13.3 mph S21.4 kmh S 27.6 mph44.4 kmh 29.06 in984.1 mb 0.00 in0.0 mm 0.00 in0.0 mm 0.00 in0.0 mm
07:00 AM 37.4°F3.0°C 34.2°F1.2°C 88% 13.7 mph S22.0 kmh S 41.2 mph66.3 kmh 29.06 in984.1 mb 0.00 in0.0 mm 0.00 in0.0 mm 0.00 in0.0 mm
07:15 AM 37.2°F2.9°C 34.0°F1.1°C 88% 14.7 mph SW23.7 kmh SW 27.9 mph44.9 kmh 29.09 in985.1 mb 0.00 in0.0 mm 0.00 in0.0 mm 0.00 in0.0 mm
07:30 AM 36.9°F2.7°C 33.9°F1.1°C 89% 17.9 mph WSW28.8 kmh WSW 37.6 mph60.5 kmh 29.09 in985.1 mb 0.06 in1.5 mm 0.24 in6.1 mm 0.06 in1.5 mm
07:45 AM 37.0°F2.8°C 34.4°F1.3°C 90% 15.4 mph SW24.8 kmh SW 27.9 mph44.9 kmh 29.09 in985.1 mb 0.06 in1.5 mm 0.00 in0.0 mm 0.06 in1.5 mm
08:00 AM 37.0°F2.8°C 34.4°F1.3°C 90% 14.6 mph WSW23.5 kmh WSW 27.2 mph43.8 kmh 29.09 in985.1 mb 0.06 in1.5 mm 0.00 in0.0 mm 0.06 in1.5 mm
08:15 AM 37.0°F2.8°C 34.4°F1.3°C 90% 15.7 mph WSW25.3 kmh WSW 35.4 mph57.0 kmh 29.09 in985.1 mb 0.10 in2.5 mm 0.16 in4.1 mm 0.10 in2.5 mm
08:30 AM 37.4°F3.0°C 34.7°F1.5°C 90% 15.2 mph SW24.5 kmh SW 34.0 mph54.7 kmh 29.09 in985.1 mb 0.05 in1.3 mm 0.00 in0.0 mm 0.10 in2.5 mm
08:45 AM 37.6°F3.1°C 34.9°F1.6°C 90% 13.8 mph WSW22.2 kmh WSW 27.6 mph44.4 kmh 29.09 in985.1 mb 0.05 in1.3 mm 0.00 in0.0 mm 0.10 in2.5 mm
09:00 AM 37.6°F3.1°C 34.9°F1.6°C 90% 16.7 mph WSW26.9 kmh WSW 27.9 mph44.9 kmh 29.09 in985.1 mb 0.05 in1.3 mm 0.00 in0.0 mm 0.10 in2.5 mm
09:15 AM 37.8°F3.2°C 34.8°F1.6°C 89% 13.9 mph SW22.4 kmh SW 27.2 mph43.8 kmh 29.12 in986.1 mb 0.00 in0.0 mm 0.00 in0.0 mm 0.10 in2.5 mm
09:30 AM 37.9°F3.3°C 35.0°F1.7°C 89% 16.0 mph S25.7 kmh S 39.4 mph63.4 kmh 29.12 in986.1 mb 0.00 in0.0 mm 0.00 in0.0 mm 0.10 in2.5 mm
09:45 AM 37.9°F3.3°C 34.7°F1.5°C 88% 16.0 mph SW25.7 kmh SW 37.2 mph59.9 kmh 29.12 in986.1 mb 0.00 in0.0 mm 0.00 in0.0 mm 0.10 in2.5 mm
10:00 AM 38.1°F3.4°C 34.6°F1.4°C 87% 17.1 mph SW27.5 kmh SW 31.9 mph51.3 kmh 29.12 in986.1 mb 0.00 in0.0 mm 0.00 in0.0 mm 0.10 in2.5 mm
10:02 AM 38.1°F3.4°C 34.6°F1.4°C 87% 12.5 mph W20.1 kmh W 15.4 mph24.8 kmh 29.12 in986.1 mb 0.00 in0.0 mm 0.00 in0.0 mm 0.10 in2.5 mm
10:30 AM 38.1°F3.4°C 34.3°F1.3°C 86% 15.6 mph WSW25.1 kmh WSW 30.8 mph49.6 kmh 29.12 in986.1 mb 0.00 in0.0 mm 0.00 in0.0 mm 0.10 in2.5 mm
10:45 AM 38.5°F3.6°C 34.7°F1.5°C 86% 14.9 mph SW24.0 kmh SW 27.9 mph44.9 kmh 29.12 in986.1 mb 0.00 in0.0 mm 0.00 in0.0 mm 0.10 in2.5 mm
11:00 AM 39.0°F3.9°C 34.9°F1.6°C 85% 15.4 mph SW24.8 kmh SW 36.5 mph58.7 kmh 29.15 in987.1 mb 0.00 in0.0 mm 0.00 in0.0 mm 0.10 in2.5 mm
11:15 AM 38.8°F3.8°C 33.8°F1.0°C 82% 15.9 mph SW25.6 kmh SW 27.9 mph44.9 kmh 29.15 in987.1 mb 0.00 in0.0 mm 0.00 in0.0 mm 0.10 in2.5 mm
11:30 AM 38.5°F3.6°C 33.5°F0.8°C 82% 15.0 mph WSW24.1 kmh WSW 28.3 mph45.5 kmh 29.15 in987.1 mb 0.00 in0.0 mm 0.00 in0.0 mm 0.10 in2.5 mm
11:45 AM 38.1°F3.4°C 33.4°F0.8°C 83% 16.7 mph SW26.9 kmh SW 30.8 mph49.6 kmh 29.15 in987.1 mb 0.00 in0.0 mm 0.00 in0.0 mm 0.10 in2.5 mm
12:00 PM 38.1°F3.4°C 33.7°F0.9°C 84% 15.0 mph WSW24.1 kmh WSW 29.7 mph47.8 kmh 29.15 in987.1 mb 0.00 in0.0 mm 0.00 in0.0 mm 0.10 in2.5 mm
12:15 PM 38.3°F3.5°C 34.2°F1.2°C 85% 15.1 mph SW24.3 kmh SW 31.5 mph50.7 kmh 29.12 in986.1 mb 0.00 in0.0 mm 0.00 in0.0 mm 0.10 in2.5 mm
12:30 PM 38.7°F3.7°C 34.5°F1.4°C 85% 14.7 mph WSW23.7 kmh WSW 25.4 mph40.9 kmh 29.15 in987.1 mb 0.00 in0.0 mm 0.00 in0.0 mm 0.10 in2.5 mm
12:45 PM 38.8°F3.8°C 34.4°F1.3°C 84% 13.1 mph WSW21.1 kmh WSW 29.0 mph46.7 kmh 29.15 in987.1 mb 0.00 in0.0 mm 0.00 in0.0 mm 0.10 in2.5 mm
01:00 PM 38.7°F3.7°C 34.2°F1.2°C 84% 12.2 mph SSW19.6 kmh SSW 28.3 mph45.5 kmh 29.12 in986.1 mb 0.00 in0.0 mm 0.00 in0.0 mm 0.10 in2.5 mm
01:15 PM 38.7°F3.7°C 33.9°F1.1°C 83% 11.2 mph SSW18.0 kmh SSW 21.1 mph34.0 kmh 29.15 in987.1 mb 0.00 in0.0 mm 0.00 in0.0 mm 0.10 in2.5 mm
01:30 PM 38.7°F3.7°C 33.9°F1.1°C 83% 11.5 mph SSW18.5 kmh SSW 24.3 mph39.1 kmh 29.15 in987.1 mb 0.00 in0.0 mm 0.00 in0.0 mm 0.10 in2.5 mm
01:45 PM 38.7°F3.7°C 33.6°F0.9°C 82% 12.3 mph SW19.8 kmh SW 32.6 mph52.5 kmh 29.15 in987.1 mb 0.00 in0.0 mm 0.00 in0.0 mm 0.10 in2.5 mm
02:00 PM 38.5°F3.6°C 33.5°F0.8°C 82% 10.9 mph SSW17.5 kmh SSW 26.8 mph43.1 kmh 29.18 in988.1 mb 0.00 in0.0 mm 0.00 in0.0 mm 0.10 in2.5 mm
02:15 PM 38.5°F3.6°C 33.8°F1.0°C 83% 9.5 mph SSW15.3 kmh SSW 20.4 mph32.8 kmh 29.18 in988.1 mb 0.00 in0.0 mm 0.00 in0.0 mm 0.10 in2.5 mm
02:30 PM 38.5°F3.6°C 33.8°F1.0°C 83% 9.1 mph S14.6 kmh S 20.8 mph33.5 kmh 29.18 in988.1 mb 0.00 in0.0 mm 0.00 in0.0 mm 0.10 in2.5 mm
02:45 PM 38.8°F3.8°C 34.1°F1.2°C 83% 7.5 mph S12.1 kmh S 22.9 mph36.9 kmh 29.18 in988.1 mb 0.00 in0.0 mm 0.00 in0.0 mm 0.10 in2.5 mm
03:00 PM 38.7°F3.7°C 33.6°F0.9°C 82% 8.0 mph S12.9 kmh S 20.4 mph32.8 kmh 29.18 in988.1 mb 0.00 in0.0 mm 0.00 in0.0 mm 0.10 in2.5 mm
03:15 PM 38.3°F3.5°C 33.3°F0.7°C 82% 8.7 mph S14.0 kmh S 21.1 mph34.0 kmh 29.21 in989.2 mb 0.00 in0.0 mm 0.00 in0.0 mm 0.10 in2.5 mm
03:30 PM 38.1°F3.4°C 33.1°F0.6°C 82% 10.6 mph S17.1 kmh S 20.4 mph32.8 kmh 29.21 in989.2 mb 0.00 in0.0 mm 0.00 in0.0 mm 0.10 in2.5 mm
03:45 PM 37.9°F3.3°C 33.2°F0.7°C 83% 8.9 mph S14.3 kmh S 20.0 mph32.2 kmh 29.21 in989.2 mb 0.00 in0.0 mm 0.00 in0.0 mm 0.10 in2.5 mm
04:00 PM 37.8°F3.2°C 33.4°F0.8°C 84% 9.0 mph S14.5 kmh S 19.7 mph31.7 kmh 29.21 in989.2 mb 0.00 in0.0 mm 0.00 in0.0 mm 0.10 in2.5 mm
04:15 PM 37.6°F3.1°C 33.8°F1.0°C 86% 8.5 mph S13.7 kmh S 19.7 mph31.7 kmh 29.18 in988.1 mb 0.00 in0.0 mm 0.00 in0.0 mm 0.10 in2.5 mm
04:30 PM 37.6°F3.1°C 33.8°F1.0°C 86% 6.8 mph SSW10.9 kmh SSW 19.7 mph31.7 kmh 29.21 in989.2 mb 0.00 in0.0 mm 0.00 in0.0 mm 0.10 in2.5 mm
04:45 PM 37.6°F3.1°C 33.8°F1.0°C 86% 7.9 mph S12.7 kmh S 16.8 mph27.0 kmh 29.21 in989.2 mb 0.00 in0.0 mm 0.00 in0.0 mm 0.10 in2.5 mm
05:00 PM 37.6°F3.1°C 33.8°F1.0°C 86% 7.9 mph S12.7 kmh S 24.3 mph39.1 kmh 29.24 in990.2 mb 0.00 in0.0 mm 0.00 in0.0 mm 0.10 in2.5 mm
05:15 PM 37.2°F2.9°C 33.1°F0.6°C 85% 7.4 mph S11.9 kmh S 17.2 mph27.7 kmh 29.24 in990.2 mb 0.00 in0.0 mm 0.00 in0.0 mm 0.10 in2.5 mm
05:30 PM 36.9°F2.7°C 32.8°F0.4°C 85% 4.1 mph S6.6 kmh S 12.2 mph19.6 kmh 29.24 in990.2 mb 0.00 in0.0 mm 0.00 in0.0 mm 0.10 in2.5 mm
05:45 PM 36.7°F2.6°C 32.6°F0.3°C 85% 6.1 mph S9.8 kmh S 17.5 mph28.2 kmh 29.24 in990.2 mb 0.00 in0.0 mm 0.00 in0.0 mm 0.10 in2.5 mm
06:02 PM 36.7°F2.6°C 32.9°F0.5°C 86% 4.4 mph S7.1 kmh S 5.4 mph8.7 kmh 29.24 in990.2 mb 0.00 in0.0 mm 0.00 in0.0 mm 0.10 in2.5 mm
06:15 PM 36.7°F2.6°C 32.9°F0.5°C 86% 4.5 mph S7.2 kmh S 10.4 mph16.7 kmh 29.24 in990.2 mb 0.00 in0.0 mm 0.00 in0.0 mm 0.10 in2.5 mm
06:30 PM 36.7°F2.6°C 32.9°F0.5°C 86% 3.8 mph S6.1 kmh S 12.5 mph20.1 kmh 29.24 in990.2 mb 0.00 in0.0 mm 0.00 in0.0 mm 0.10 in2.5 mm
06:45 PM 36.9°F2.7°C 33.1°F0.6°C 86% 4.5 mph S7.2 kmh S 15.4 mph24.8 kmh 29.27 in991.2 mb 0.00 in0.0 mm 0.00 in0.0 mm 0.10 in2.5 mm
07:00 PM 36.3°F2.4°C 32.2°F0.1°C 85% 3.3 mph S5.3 kmh S 11.8 mph19.0 kmh 29.27 in991.2 mb 0.00 in0.0 mm 0.00 in0.0 mm 0.10 in2.5 mm
07:15 PM 36.0°F2.2°C 31.9°F-0.1°C 85% 5.6 mph S9.0 kmh S 16.1 mph25.9 kmh 29.27 in991.2 mb 0.00 in0.0 mm 0.00 in0.0 mm 0.10 in2.5 mm
07:30 PM 35.6°F2.0°C 31.8°F-0.1°C 86% 5.6 mph SSE9.0 kmh SSE 14.0 mph22.5 kmh 29.27 in991.2 mb 0.00 in0.0 mm 0.00 in0.0 mm 0.10 in2.5 mm
07:45 PM 36.0°F2.2°C 32.5°F0.3°C 87% 5.3 mph SSE8.5 kmh SSE 11.8 mph19.0 kmh 29.27 in991.2 mb 0.00 in0.0 mm 0.00 in0.0 mm 0.10 in2.5 mm
08:00 PM 36.3°F2.4°C 33.1°F0.6°C 88% 4.4 mph SSE7.1 kmh SSE 10.0 mph16.1 kmh 29.27 in991.2 mb 0.00 in0.0 mm 0.00 in0.0 mm 0.10 in2.5 mm
08:15 PM 36.7°F2.6°C 33.2°F0.7°C 87% 3.6 mph SSE5.8 kmh SSE 12.9 mph20.8 kmh 29.27 in991.2 mb 0.00 in0.0 mm 0.00 in0.0 mm 0.10 in2.5 mm
08:30 PM 36.9°F2.7°C 33.4°F0.8°C 87% 5.3 mph SSE8.5 kmh SSE 10.0 mph16.1 kmh 29.27 in991.2 mb 0.00 in0.0 mm 0.00 in0.0 mm 0.10 in2.5 mm
08:45 PM 36.9°F2.7°C 33.1°F0.6°C 86% 2.6 mph SE4.2 kmh SE 10.4 mph16.7 kmh 29.27 in991.2 mb 0.00 in0.0 mm 0.00 in0.0 mm 0.10 in2.5 mm
09:00 PM 36.9°F2.7°C 33.1°F0.6°C 86% 2.7 mph SSE4.3 kmh SSE 10.4 mph16.7 kmh 29.27 in991.2 mb 0.00 in0.0 mm 0.00 in0.0 mm 0.10 in2.5 mm
09:15 PM 36.9°F2.7°C 32.8°F0.4°C 85% 5.4 mph SSE8.7 kmh SSE 15.4 mph24.8 kmh 29.30 in992.2 mb 0.00 in0.0 mm 0.00 in0.0 mm 0.10 in2.5 mm
09:30 PM 36.9°F2.7°C 32.8°F0.4°C 85% 0.8 mph SE1.3 kmh SE 10.0 mph16.1 kmh 29.30 in992.2 mb 0.00 in0.0 mm 0.00 in0.0 mm 0.10 in2.5 mm
09:45 PM 36.9°F2.7°C 32.5°F0.3°C 84% 4.5 mph SSE7.2 kmh SSE 12.9 mph20.8 kmh 29.27 in991.2 mb 0.00 in0.0 mm 0.00 in0.0 mm 0.10 in2.5 mm
10:00 PM 36.9°F2.7°C 32.5°F0.3°C 84% 3.9 mph SE6.3 kmh SE 10.0 mph16.1 kmh 29.30 in992.2 mb 0.00 in0.0 mm 0.00 in0.0 mm 0.10 in2.5 mm
10:15 PM 36.9°F2.7°C 32.5°F0.3°C 84% 5.1 mph SSE8.2 kmh SSE 10.4 mph16.7 kmh 29.30 in992.2 mb 0.00 in0.0 mm 0.00 in0.0 mm 0.10 in2.5 mm
10:30 PM 36.9°F2.7°C 31.9°F-0.1°C 82% 5.0 mph SSE8.0 kmh SSE 12.2 mph19.6 kmh 29.33 in993.2 mb 0.00 in0.0 mm 0.00 in0.0 mm 0.10 in2.5 mm
10:45 PM 36.9°F2.7°C 31.9°F-0.1°C 82% 3.3 mph SE5.3 kmh SE 8.9 mph14.3 kmh 29.33 in993.2 mb 0.00 in0.0 mm 0.00 in0.0 mm 0.10 in2.5 mm
11:00 PM 36.9°F2.7°C 31.6°F-0.2°C 81% 3.7 mph SE6.0 kmh SE 9.7 mph15.6 kmh 29.33 in993.2 mb 0.00 in0.0 mm 0.00 in0.0 mm 0.10 in2.5 mm
11:15 PM 36.7°F2.6°C 31.4°F-0.3°C 81% 0.9 mph SE1.4 kmh SE 6.1 mph9.8 kmh 29.33 in993.2 mb 0.00 in0.0 mm 0.00 in0.0 mm 0.10 in2.5 mm
11:30 PM 36.5°F2.5°C 31.2°F-0.4°C 81% 1.5 mph ESE2.4 kmh ESE 6.1 mph9.8 kmh 29.33 in993.2 mb 0.00 in0.0 mm 0.00 in0.0 mm 0.10 in2.5 mm
11:45 PM 36.1°F2.3°C 30.9°F-0.6°C 81% 1.7 mph E2.7 kmh E 6.4 mph10.3 kmh 29.33 in993.2 mb 0.00 in0.0 mm 0.00 in0.0 mm 0.10 in2.5 mm